Terminal Aerodrome Forecast
Issued by NWS

Home | Current Version | Previous Version | Text Only | Print | Product List | Glossary On
Versions: 1 2 3 4 5 6 7 8 9 10 11 12 13 14 15 16 17 18 19 20
000
FTUS45 KBOU 092020 AAA
TAFBJC
TAF AMD
KBJC 092020Z 0920/1018 26012KT P6SM FEW220
     FM092200 04006KT P6SM FEW120 FEW220
     FM100200 24007KT P6SM FEW220
     FM100500 30005KT P6SM FEW220
     FM101500 VRB06KT P6SM FEW220=

USA.gov is the U.S. government's official web portal to all federal, state and local government web resources and services.